Terminal Aerodrome Forecast
Issued by NWS Cleveland, OH

Home | Current Version | Previous Version | Text Only | Print | Product List | Glossary On
Versions: 1 2 3 4 5 6 7 8 9 10 11 12 13 14 15 16 17 18 19 20
000
FTUS41 KCLE 211731
TAFYNG
TAF
KYNG 211731Z 2118/2218 21016G26KT P6SM OVC250
     FM220200 26009KT P6SM VCSH OVC045
      TEMPO 2202/2204 4SM -SHRA OVC025
     FM220400 26009KT 5SM -SHRASN OVC025
      TEMPO 2204/2208 2SM -SHSN OVC015
     FM220900 30009KT P6SM OVC025
     FM221700 31008KT P6SM BKN045=

USA.gov is the U.S. government's official web portal to all federal, state and local government web resources and services.